sensor_id;sensor_type;location;lat;lon;timestamp;P1;durP1;ratioP1;P2;durP2;ratioP2
18102;SDS011;9178;51.120;6.192;2024-02-26T00:02:16;2.80;;;1.10;;
18102;SDS011;9178;51.120;6.192;2024-02-26T00:04:45;0.90;;;0.90;;
18102;SDS011;9178;51.120;6.192;2024-02-26T00:07:12;1.30;;;1.20;;
18102;SDS011;9178;51.120;6.192;2024-02-26T00:09:40;1.87;;;1.07;;
18102;SDS011;9178;51.120;6.192;2024-02-26T00:12:07;1.77;;;1.10;;
18102;SDS011;9178;51.120;6.192;2024-02-26T00:14:34;1.00;;;1.00;;
18102;SDS011;9178;51.120;6.192;2024-02-26T00:17:13;2.17;;;1.30;;
18102;SDS011;9178;51.120;6.192;2024-02-26T00:19:43;2.23;;;1.10;;
18102;SDS011;9178;51.120;6.192;2024-02-26T00:22:13;1.10;;;1.00;;
18102;SDS011;9178;51.120;6.192;2024-02-26T00:24:44;2.13;;;1.13;;
18102;SDS011;9178;51.120;6.192;2024-02-26T00:27:11;2.37;;;1.10;;
18102;SDS011;9178;51.120;6.192;2024-02-26T00:29:43;1.87;;;1.17;;
18102;SDS011;9178;51.120;6.192;2024-02-26T00:32:10;1.40;;;1.17;;
18102;SDS011;9178;51.120;6.192;2024-02-26T00:34:39;1.63;;;1.00;;
18102;SDS011;9178;51.120;6.192;2024-02-26T00:37:08;1.13;;;0.80;;
18102;SDS011;9178;51.120;6.192;2024-02-26T00:39:37;1.50;;;1.00;;
18102;SDS011;9178;51.120;6.192;2024-02-26T00:42:04;1.10;;;0.90;;
18102;SDS011;9178;51.120;6.192;2024-02-26T00:44:33;2.10;;;1.00;;
18102;SDS011;9178;51.120;6.192;2024-02-26T00:47:03;1.50;;;1.20;;
18102;SDS011;9178;51.120;6.192;2024-02-26T00:49:30;2.03;;;1.10;;
18102;SDS011;9178;51.120;6.192;2024-02-26T00:51:58;1.70;;;1.23;;
18102;SDS011;9178;51.120;6.192;2024-02-26T00:54:28;1.47;;;1.17;;
18102;SDS011;9178;51.120;6.192;2024-02-26T00:56:56;1.60;;;1.10;;
18102;SDS011;9178;51.120;6.192;2024-02-26T00:59:26;1.10;;;1.00;;
18102;SDS011;9178;51.120;6.192;2024-02-26T01:01:53;2.10;;;1.00;;
18102;SDS011;9178;51.120;6.192;2024-02-26T01:04:20;1.57;;;1.23;;
18102;SDS011;9178;51.120;6.192;2024-02-26T01:06:47;2.67;;;1.30;;
18102;SDS011;9178;51.120;6.192;2024-02-26T01:09:16;3.83;;;1.37;;
18102;SDS011;9178;51.120;6.192;2024-02-26T01:11:43;1.53;;;1.20;;
18102;SDS011;9178;51.120;6.192;2024-02-26T01:14:13;2.37;;;1.23;;
18102;SDS011;9178;51.120;6.192;2024-02-26T01:16:41;1.97;;;1.10;;
18102;SDS011;9178;51.120;6.192;2024-02-26T01:19:08;2.40;;;1.20;;
18102;SDS011;9178;51.120;6.192;2024-02-26T01:21:36;1.10;;;1.00;;
18102;SDS011;9178;51.120;6.192;2024-02-26T01:24:05;1.87;;;1.10;;
18102;SDS011;9178;51.120;6.192;2024-02-26T01:26:33;1.60;;;1.00;;
18102;SDS011;9178;51.120;6.192;2024-02-26T01:29:00;1.10;;;1.10;;
18102;SDS011;9178;51.120;6.192;2024-02-26T01:31:28;1.30;;;1.10;;
18102;SDS011;9178;51.120;6.192;2024-02-26T01:33:56;1.70;;;1.00;;
18102;SDS011;9178;51.120;6.192;2024-02-26T01:36:25;1.10;;;0.87;;
18102;SDS011;9178;51.120;6.192;2024-02-26T01:38:52;1.57;;;1.10;;
18102;SDS011;9178;51.120;6.192;2024-02-26T01:41:19;1.33;;;1.23;;
18102;SDS011;9178;51.120;6.192;2024-02-26T01:43:47;2.30;;;1.10;;
18102;SDS011;9178;51.120;6.192;2024-02-26T01:46:17;1.10;;;1.00;;
18102;SDS011;9178;51.120;6.192;2024-02-26T01:48:45;1.20;;;1.10;;
18102;SDS011;9178;51.120;6.192;2024-02-26T01:51:15;1.50;;;1.30;;
18102;SDS011;9178;51.120;6.192;2024-02-26T01:53:43;1.57;;;1.27;;
18102;SDS011;9178;51.120;6.192;2024-02-26T01:56:11;1.17;;;1.10;;
18102;SDS011;9178;51.120;6.192;2024-02-26T01:58:42;2.83;;;1.50;;
18102;SDS011;9178;51.120;6.192;2024-02-26T02:01:09;1.73;;;1.43;;
18102;SDS011;9178;51.120;6.192;2024-02-26T02:03:41;2.47;;;1.40;;
18102;SDS011;9178;51.120;6.192;2024-02-26T02:06:25;2.50;;;1.60;;
18102;SDS011;9178;51.120;6.192;2024-02-26T02:08:54;1.90;;;1.23;;
18102;SDS011;9178;51.120;6.192;2024-02-26T02:11:22;2.30;;;1.70;;
18102;SDS011;9178;51.120;6.192;2024-02-26T02:13:50;2.13;;;1.50;;
18102;SDS011;9178;51.120;6.192;2024-02-26T02:16:20;2.27;;;1.57;;
18102;SDS011;9178;51.120;6.192;2024-02-26T02:18:48;1.60;;;1.40;;
18102;SDS011;9178;51.120;6.192;2024-02-26T02:21:17;1.40;;;1.20;;
18102;SDS011;9178;51.120;6.192;2024-02-26T02:23:46;1.67;;;1.30;;
18102;SDS011;9178;51.120;6.192;2024-02-26T02:26:21;1.30;;;1.20;;
18102;SDS011;9178;51.120;6.192;2024-02-26T02:28:49;2.30;;;1.23;;
18102;SDS011;9178;51.120;6.192;2024-02-26T02:31:27;1.43;;;1.33;;
18102;SDS011;9178;51.120;6.192;2024-02-26T02:33:59;2.97;;;1.23;;
18102;SDS011;9178;51.120;6.192;2024-02-26T02:36:28;2.17;;;1.50;;
18102;SDS011;9178;51.120;6.192;2024-02-26T02:38:55;1.13;;;1.13;;
18102;SDS011;9178;51.120;6.192;2024-02-26T02:41:23;1.63;;;1.20;;
18102;SDS011;9178;51.120;6.192;2024-02-26T02:43:51;1.60;;;1.10;;
18102;SDS011;9178;51.120;6.192;2024-02-26T02:46:18;2.87;;;1.40;;
18102;SDS011;9178;51.120;6.192;2024-02-26T02:48:45;1.37;;;1.20;;
18102;SDS011;9178;51.120;6.192;2024-02-26T02:51:13;1.37;;;0.90;;
18102;SDS011;9178;51.120;6.192;2024-02-26T02:53:41;2.10;;;0.90;;
18102;SDS011;9178;51.120;6.192;2024-02-26T02:56:08;1.80;;;0.97;;
18102;SDS011;9178;51.120;6.192;2024-02-26T02:58:37;1.47;;;1.10;;
18102;SDS011;9178;51.120;6.192;2024-02-26T03:01:04;2.50;;;1.00;;
18102;SDS011;9178;51.120;6.192;2024-02-26T03:03:31;1.30;;;1.20;;
18102;SDS011;9178;51.120;6.192;2024-02-26T03:05:59;1.70;;;0.97;;
18102;SDS011;9178;51.120;6.192;2024-02-26T03:08:28;1.03;;;0.93;;
18102;SDS011;9178;51.120;6.192;2024-02-26T03:10:57;1.07;;;0.97;;
18102;SDS011;9178;51.120;6.192;2024-02-26T03:13:25;1.23;;;1.03;;
18102;SDS011;9178;51.120;6.192;2024-02-26T03:15:52;1.00;;;0.90;;
18102;SDS011;9178;51.120;6.192;2024-02-26T03:18:20;3.37;;;1.00;;
18102;SDS011;9178;51.120;6.192;2024-02-26T03:20:50;1.30;;;1.10;;
18102;SDS011;9178;51.120;6.192;2024-02-26T03:23:17;0.97;;;0.80;;
18102;SDS011;9178;51.120;6.192;2024-02-26T03:25:46;2.50;;;1.13;;
18102;SDS011;9178;51.120;6.192;2024-02-26T03:28:14;2.10;;;1.10;;
18102;SDS011;9178;51.120;6.192;2024-02-26T03:30:41;0.80;;;0.80;;
18102;SDS011;9178;51.120;6.192;2024-02-26T03:33:08;0.90;;;0.90;;
18102;SDS011;9178;51.120;6.192;2024-02-26T03:35:35;1.13;;;0.80;;
18102;SDS011;9178;51.120;6.192;2024-02-26T03:38:03;1.80;;;1.10;;
18102;SDS011;9178;51.120;6.192;2024-02-26T03:40:32;2.00;;;1.00;;
18102;SDS011;9178;51.120;6.192;2024-02-26T03:42:59;1.10;;;1.10;;
18102;SDS011;9178;51.120;6.192;2024-02-26T03:45:27;1.83;;;1.17;;
18102;SDS011;9178;51.120;6.192;2024-02-26T03:47:54;1.20;;;0.97;;
18102;SDS011;9178;51.120;6.192;2024-02-26T03:50:22;2.37;;;1.20;;
18102;SDS011;9178;51.120;6.192;2024-02-26T03:52:49;1.07;;;1.07;;
18102;SDS011;9178;51.120;6.192;2024-02-26T03:55:16;1.03;;;1.03;;
18102;SDS011;9178;51.120;6.192;2024-02-26T03:57:46;2.43;;;1.30;;
18102;SDS011;9178;51.120;6.192;2024-02-26T04:00:13;1.13;;;1.03;;
18102;SDS011;9178;51.120;6.192;2024-02-26T04:02:42;0.90;;;0.90;;
18102;SDS011;9178;51.120;6.192;2024-02-26T04:05:09;2.23;;;1.10;;
18102;SDS011;9178;51.120;6.192;2024-02-26T04:07:36;1.13;;;1.13;;
18102;SDS011;9178;51.120;6.192;2024-02-26T04:10:04;2.50;;;1.40;;
18102;SDS011;9178;51.120;6.192;2024-02-26T04:12:38;1.53;;;1.20;;
18102;SDS011;9178;51.120;6.192;2024-02-26T04:15:07;1.30;;;1.20;;
18102;SDS011;9178;51.120;6.192;2024-02-26T04:17:34;1.40;;;1.30;;
18102;SDS011;9178;51.120;6.192;2024-02-26T04:20:04;1.73;;;1.00;;
18102;SDS011;9178;51.120;6.192;2024-02-26T04:22:32;1.07;;;0.97;;
18102;SDS011;9178;51.120;6.192;2024-02-26T04:24:59;1.93;;;1.30;;
18102;SDS011;9178;51.120;6.192;2024-02-26T04:27:30;1.73;;;1.17;;
18102;SDS011;9178;51.120;6.192;2024-02-26T04:29:57;1.50;;;1.00;;
18102;SDS011;9178;51.120;6.192;2024-02-26T04:32:24;1.53;;;1.03;;
18102;SDS011;9178;51.120;6.192;2024-02-26T04:34:51;1.10;;;1.00;;
18102;SDS011;9178;51.120;6.192;2024-02-26T04:37:19;3.23;;;0.97;;
18102;SDS011;9178;51.120;6.192;2024-02-26T04:39:47;2.83;;;1.10;;
18102;SDS011;9178;51.120;6.192;2024-02-26T04:42:14;2.23;;;1.97;;
18102;SDS011;9178;51.120;6.192;2024-02-26T04:44:41;1.50;;;1.23;;
18102;SDS011;9178;51.120;6.192;2024-02-26T04:47:08;2.50;;;1.40;;
18102;SDS011;9178;51.120;6.192;2024-02-26T04:49:44;2.37;;;1.33;;
18102;SDS011;9178;51.120;6.192;2024-02-26T04:52:12;1.83;;;1.13;;
18102;SDS011;9178;51.120;6.192;2024-02-26T04:54:40;2.30;;;1.10;;
18102;SDS011;9178;51.120;6.192;2024-02-26T04:57:07;1.17;;;1.10;;
18102;SDS011;9178;51.120;6.192;2024-02-26T04:59:34;2.10;;;1.00;;
18102;SDS011;9178;51.120;6.192;2024-02-26T05:02:02;1.20;;;1.10;;
18102;SDS011;9178;51.120;6.192;2024-02-26T05:04:29;1.67;;;1.10;;
18102;SDS011;9178;51.120;6.192;2024-02-26T05:06:59;1.30;;;1.20;;
18102;SDS011;9178;51.120;6.192;2024-02-26T05:09:26;1.50;;;1.13;;
18102;SDS011;9178;51.120;6.192;2024-02-26T05:11:55;2.50;;;2.20;;
18102;SDS011;9178;51.120;6.192;2024-02-26T05:14:22;2.23;;;1.90;;
18102;SDS011;9178;51.120;6.192;2024-02-26T05:16:50;3.93;;;2.10;;
18102;SDS011;9178;51.120;6.192;2024-02-26T05:19:20;3.20;;;2.17;;
18102;SDS011;9178;51.120;6.192;2024-02-26T05:21:47;2.70;;;1.97;;
18102;SDS011;9178;51.120;6.192;2024-02-26T05:24:15;3.10;;;1.77;;
18102;SDS011;9178;51.120;6.192;2024-02-26T05:26:50;2.80;;;1.90;;
18102;SDS011;9178;51.120;6.192;2024-02-26T05:29:21;2.37;;;1.60;;
18102;SDS011;9178;51.120;6.192;2024-02-26T05:31:51;1.90;;;1.80;;
18102;SDS011;9178;51.120;6.192;2024-02-26T05:34:19;2.27;;;1.83;;
18102;SDS011;9178;51.120;6.192;2024-02-26T05:36:49;3.33;;;1.97;;
18102;SDS011;9178;51.120;6.192;2024-02-26T05:39:19;2.20;;;1.80;;
18102;SDS011;9178;51.120;6.192;2024-02-26T05:41:46;2.07;;;1.80;;
18102;SDS011;9178;51.120;6.192;2024-02-26T05:44:17;1.80;;;1.70;;
18102;SDS011;9178;51.120;6.192;2024-02-26T05:46:46;3.73;;;1.90;;
18102;SDS011;9178;51.120;6.192;2024-02-26T05:49:13;2.10;;;2.00;;
18102;SDS011;9178;51.120;6.192;2024-02-26T05:51:43;5.00;;;2.20;;
18102;SDS011;9178;51.120;6.192;2024-02-26T05:54:10;4.50;;;2.20;;
18102;SDS011;9178;51.120;6.192;2024-02-26T05:56:39;2.97;;;2.07;;
18102;SDS011;9178;51.120;6.192;2024-02-26T05:59:07;2.33;;;2.13;;
18102;SDS011;9178;51.120;6.192;2024-02-26T06:01:35;2.23;;;1.90;;
18102;SDS011;9178;51.120;6.192;2024-02-26T06:04:07;2.23;;;2.03;;
18102;SDS011;9178;51.120;6.192;2024-02-26T06:06:38;2.37;;;2.20;;
18102;SDS011;9178;51.120;6.192;2024-02-26T06:09:05;2.13;;;1.80;;
18102;SDS011;9178;51.120;6.192;2024-02-26T06:11:36;2.37;;;2.03;;
18102;SDS011;9178;51.120;6.192;2024-02-26T06:14:03;4.43;;;2.60;;
18102;SDS011;9178;51.120;6.192;2024-02-26T06:16:30;3.10;;;2.20;;
18102;SDS011;9178;51.120;6.192;2024-02-26T06:18:58;3.93;;;2.13;;
18102;SDS011;9178;51.120;6.192;2024-02-26T06:21:26;2.03;;;1.87;;
18102;SDS011;9178;51.120;6.192;2024-02-26T06:23:53;2.93;;;2.10;;
18102;SDS011;9178;51.120;6.192;2024-02-26T06:26:20;2.90;;;2.20;;
18102;SDS011;9178;51.120;6.192;2024-02-26T06:28:50;2.40;;;2.13;;
18102;SDS011;9178;51.120;6.192;2024-02-26T06:31:22;3.80;;;2.00;;
18102;SDS011;9178;51.120;6.192;2024-02-26T06:33:58;3.00;;;2.50;;
18102;SDS011;9178;51.120;6.192;2024-02-26T06:36:29;3.50;;;2.40;;
18102;SDS011;9178;51.120;6.192;2024-02-26T06:39:14;3.20;;;2.77;;
18102;SDS011;9178;51.120;6.192;2024-02-26T06:41:57;3.23;;;2.90;;
18102;SDS011;9178;51.120;6.192;2024-02-26T06:44:29;3.53;;;2.90;;
18102;SDS011;9178;51.120;6.192;2024-02-26T06:46:58;3.60;;;3.30;;
18102;SDS011;9178;51.120;6.192;2024-02-26T06:49:26;4.50;;;3.20;;
18102;SDS011;9178;51.120;6.192;2024-02-26T06:51:55;4.77;;;3.97;;
18102;SDS011;9178;51.120;6.192;2024-02-26T06:54:24;5.50;;;4.27;;
18102;SDS011;9178;51.120;6.192;2024-02-26T06:56:51;4.50;;;4.10;;
18102;SDS011;9178;51.120;6.192;2024-02-26T06:59:19;6.60;;;4.70;;
18102;SDS011;9178;51.120;6.192;2024-02-26T07:01:46;5.23;;;4.70;;
18102;SDS011;9178;51.120;6.192;2024-02-26T07:04:13;6.13;;;4.80;;
18102;SDS011;9178;51.120;6.192;2024-02-26T07:06:43;5.20;;;4.70;;
18102;SDS011;9178;51.120;6.192;2024-02-26T07:09:13;6.30;;;4.53;;
18102;SDS011;9178;51.120;6.192;2024-02-26T07:11:40;4.87;;;4.40;;
18102;SDS011;9178;51.120;6.192;2024-02-26T07:14:15;6.23;;;4.60;;
18102;SDS011;9178;51.120;6.192;2024-02-26T07:16:42;5.83;;;4.87;;
18102;SDS011;9178;51.120;6.192;2024-02-26T07:19:11;5.40;;;4.73;;
18102;SDS011;9178;51.120;6.192;2024-02-26T07:21:51;5.97;;;5.40;;
18102;SDS011;9178;51.120;6.192;2024-02-26T07:24:20;5.43;;;4.87;;
18102;SDS011;9178;51.120;6.192;2024-02-26T07:26:50;6.93;;;5.23;;
18102;SDS011;9178;51.120;6.192;2024-02-26T07:29:23;6.63;;;4.87;;
18102;SDS011;9178;51.120;6.192;2024-02-26T07:31:53;5.10;;;4.60;;
18102;SDS011;9178;51.120;6.192;2024-02-26T07:34:22;7.00;;;4.93;;
18102;SDS011;9178;51.120;6.192;2024-02-26T07:36:54;5.50;;;4.43;;
18102;SDS011;9178;51.120;6.192;2024-02-26T07:39:23;5.23;;;4.73;;
18102;SDS011;9178;51.120;6.192;2024-02-26T07:41:50;4.90;;;4.13;;
18102;SDS011;9178;51.120;6.192;2024-02-26T07:44:18;4.70;;;4.30;;
18102;SDS011;9178;51.120;6.192;2024-02-26T07:46:47;5.00;;;4.30;;
18102;SDS011;9178;51.120;6.192;2024-02-26T07:49:15;4.33;;;3.90;;
18102;SDS011;9178;51.120;6.192;2024-02-26T07:51:42;4.63;;;3.70;;
18102;SDS011;9178;51.120;6.192;2024-02-26T07:54:12;4.43;;;3.80;;
18102;SDS011;9178;51.120;6.192;2024-02-26T07:56:43;3.50;;;3.20;;
18102;SDS011;9178;51.120;6.192;2024-02-26T07:59:10;3.77;;;3.07;;
18102;SDS011;9178;51.120;6.192;2024-02-26T08:01:39;3.17;;;2.90;;
18102;SDS011;9178;51.120;6.192;2024-02-26T08:04:10;3.23;;;2.90;;
18102;SDS011;9178;51.120;6.192;2024-02-26T08:06:40;2.63;;;2.43;;
18102;SDS011;9178;51.120;6.192;2024-02-26T08:09:08;2.50;;;2.30;;
18102;SDS011;9178;51.120;6.192;2024-02-26T08:11:35;3.07;;;2.77;;
18102;SDS011;9178;51.120;6.192;2024-02-26T08:14:04;2.80;;;2.60;;
18102;SDS011;9178;51.120;6.192;2024-02-26T08:16:31;2.60;;;2.40;;
18102;SDS011;9178;51.120;6.192;2024-02-26T08:18:58;2.83;;;2.63;;
18102;SDS011;9178;51.120;6.192;2024-02-26T08:21:25;3.03;;;2.47;;
18102;SDS011;9178;51.120;6.192;2024-02-26T08:23:52;2.87;;;2.50;;
18102;SDS011;9178;51.120;6.192;2024-02-26T08:26:20;4.33;;;2.30;;
18102;SDS011;9178;51.120;6.192;2024-02-26T08:28:48;2.33;;;2.13;;
18102;SDS011;9178;51.120;6.192;2024-02-26T08:31:17;2.40;;;2.20;;
18102;SDS011;9178;51.120;6.192;2024-02-26T08:33:45;2.50;;;2.30;;
18102;SDS011;9178;51.120;6.192;2024-02-26T08:36:12;2.40;;;2.20;;
18102;SDS011;9178;51.120;6.192;2024-02-26T08:38:39;2.60;;;2.40;;
18102;SDS011;9178;51.120;6.192;2024-02-26T08:41:06;2.73;;;2.53;;
18102;SDS011;9178;51.120;6.192;2024-02-26T08:43:33;4.23;;;2.50;;
18102;SDS011;9178;51.120;6.192;2024-02-26T08:46:00;2.90;;;2.33;;
18102;SDS011;9178;51.120;6.192;2024-02-26T08:48:29;3.43;;;2.30;;
18102;SDS011;9178;51.120;6.192;2024-02-26T08:50:56;2.37;;;2.17;;
18102;SDS011;9178;51.120;6.192;2024-02-26T08:53:23;4.17;;;2.60;;
18102;SDS011;9178;51.120;6.192;2024-02-26T08:55:53;3.07;;;2.67;;
18102;SDS011;9178;51.120;6.192;2024-02-26T08:58:20;4.63;;;2.93;;
18102;SDS011;9178;51.120;6.192;2024-02-26T09:00:47;4.33;;;3.17;;
18102;SDS011;9178;51.120;6.192;2024-02-26T09:03:14;2.93;;;2.50;;
18102;SDS011;9178;51.120;6.192;2024-02-26T09:05:43;2.77;;;2.43;;
18102;SDS011;9178;51.120;6.192;2024-02-26T09:08:10;3.57;;;2.63;;
18102;SDS011;9178;51.120;6.192;2024-02-26T09:10:37;5.10;;;3.70;;
18102;SDS011;9178;51.120;6.192;2024-02-26T09:13:04;4.00;;;3.00;;
18102;SDS011;9178;51.120;6.192;2024-02-26T09:15:31;3.43;;;3.00;;
18102;SDS011;9178;51.120;6.192;2024-02-26T09:17:58;3.80;;;2.87;;
18102;SDS011;9178;51.120;6.192;2024-02-26T09:20:25;3.00;;;2.60;;
18102;SDS011;9178;51.120;6.192;2024-02-26T09:22:53;3.87;;;3.10;;
18102;SDS011;9178;51.120;6.192;2024-02-26T09:25:20;3.07;;;2.40;;
18102;SDS011;9178;51.120;6.192;2024-02-26T09:27:49;4.77;;;3.30;;
18102;SDS011;9178;51.120;6.192;2024-02-26T09:30:16;3.77;;;3.27;;
18102;SDS011;9178;51.120;6.192;2024-02-26T09:32:46;2.80;;;2.20;;
18102;SDS011;9178;51.120;6.192;2024-02-26T09:35:13;5.30;;;2.30;;
18102;SDS011;9178;51.120;6.192;2024-02-26T09:37:40;3.90;;;2.60;;
18102;SDS011;9178;51.120;6.192;2024-02-26T09:40:11;3.77;;;3.00;;
18102;SDS011;9178;51.120;6.192;2024-02-26T09:42:39;3.10;;;2.47;;
18102;SDS011;9178;51.120;6.192;2024-02-26T09:45:17;5.77;;;3.53;;
18102;SDS011;9178;51.120;6.192;2024-02-26T09:47:45;5.27;;;3.27;;
18102;SDS011;9178;51.120;6.192;2024-02-26T09:50:15;3.77;;;3.03;;
18102;SDS011;9178;51.120;6.192;2024-02-26T09:52:47;4.03;;;3.40;;
18102;SDS011;9178;51.120;6.192;2024-02-26T09:55:16;4.67;;;3.63;;
18102;SDS011;9178;51.120;6.192;2024-02-26T09:57:45;4.00;;;2.97;;
18102;SDS011;9178;51.120;6.192;2024-02-26T10:00:14;3.10;;;2.80;;
18102;SDS011;9178;51.120;6.192;2024-02-26T10:02:45;6.37;;;4.77;;
18102;SDS011;9178;51.120;6.192;2024-02-26T10:05:14;4.80;;;3.40;;
18102;SDS011;9178;51.120;6.192;2024-02-26T10:07:43;5.47;;;3.37;;
18102;SDS011;9178;51.120;6.192;2024-02-26T10:10:11;4.27;;;3.20;;
18102;SDS011;9178;51.120;6.192;2024-02-26T10:12:43;3.93;;;3.20;;
18102;SDS011;9178;51.120;6.192;2024-02-26T10:15:11;3.97;;;2.80;;
18102;SDS011;9178;51.120;6.192;2024-02-26T10:17:38;4.90;;;3.13;;
18102;SDS011;9178;51.120;6.192;2024-02-26T10:20:12;4.27;;;3.30;;
18102;SDS011;9178;51.120;6.192;2024-02-26T10:22:41;4.83;;;3.70;;
18102;SDS011;9178;51.120;6.192;2024-02-26T10:25:08;5.27;;;4.13;;
18102;SDS011;9178;51.120;6.192;2024-02-26T10:27:35;2.70;;;2.50;;
18102;SDS011;9178;51.120;6.192;2024-02-26T10:30:04;4.77;;;4.00;;
18102;SDS011;9178;51.120;6.192;2024-02-26T10:32:44;4.83;;;3.43;;
18102;SDS011;9178;51.120;6.192;2024-02-26T10:35:12;6.03;;;3.57;;
18102;SDS011;9178;51.120;6.192;2024-02-26T10:37:39;4.50;;;2.80;;
18102;SDS011;9178;51.120;6.192;2024-02-26T10:40:08;2.90;;;2.50;;
18102;SDS011;9178;51.120;6.192;2024-02-26T10:42:37;3.40;;;3.10;;
18102;SDS011;9178;51.120;6.192;2024-02-26T10:45:06;3.43;;;3.07;;
18102;SDS011;9178;51.120;6.192;2024-02-26T10:47:34;2.57;;;2.10;;
18102;SDS011;9178;51.120;6.192;2024-02-26T10:50:01;6.27;;;4.70;;
18102;SDS011;9178;51.120;6.192;2024-02-26T10:52:29;3.83;;;2.80;;
18102;SDS011;9178;51.120;6.192;2024-02-26T10:55:00;4.17;;;3.07;;
18102;SDS011;9178;51.120;6.192;2024-02-26T10:57:29;4.43;;;3.93;;
18102;SDS011;9178;51.120;6.192;2024-02-26T11:00:00;4.87;;;3.60;;
18102;SDS011;9178;51.120;6.192;2024-02-26T11:02:31;3.27;;;2.70;;
18102;SDS011;9178;51.120;6.192;2024-02-26T11:05:00;6.43;;;3.43;;
18102;SDS011;9178;51.120;6.192;2024-02-26T11:07:29;3.03;;;2.80;;
18102;SDS011;9178;51.120;6.192;2024-02-26T11:09:58;3.33;;;3.00;;
18102;SDS011;9178;51.120;6.192;2024-02-26T11:12:27;2.77;;;2.57;;
18102;SDS011;9178;51.120;6.192;2024-02-26T11:14:55;5.50;;;2.70;;
18102;SDS011;9178;51.120;6.192;2024-02-26T11:17:25;3.17;;;2.50;;
18102;SDS011;9178;51.120;6.192;2024-02-26T11:19:58;3.77;;;2.80;;
18102;SDS011;9178;51.120;6.192;2024-02-26T11:22:27;4.40;;;2.80;;
18102;SDS011;9178;51.120;6.192;2024-02-26T11:24:56;2.53;;;2.30;;
18102;SDS011;9178;51.120;6.192;2024-02-26T11:27:26;2.83;;;2.50;;
18102;SDS011;9178;51.120;6.192;2024-02-26T11:29:57;3.27;;;2.80;;
18102;SDS011;9178;51.120;6.192;2024-02-26T11:32:27;2.83;;;2.57;;
18102;SDS011;9178;51.120;6.192;2024-02-26T11:35:00;3.13;;;2.83;;
18102;SDS011;9178;51.120;6.192;2024-02-26T11:37:28;3.20;;;2.90;;
18102;SDS011;9178;51.120;6.192;2024-02-26T11:39:55;2.77;;;2.47;;
18102;SDS011;9178;51.120;6.192;2024-02-26T11:42:29;3.03;;;2.60;;
18102;SDS011;9178;51.120;6.192;2024-02-26T11:44:59;3.67;;;2.90;;
18102;SDS011;9178;51.120;6.192;2024-02-26T11:47:30;2.93;;;2.50;;
18102;SDS011;9178;51.120;6.192;2024-02-26T11:50:02;2.97;;;2.43;;
18102;SDS011;9178;51.120;6.192;2024-02-26T11:53:19;4.03;;;2.67;;
18102;SDS011;9178;51.120;6.192;2024-02-26T11:55:48;3.37;;;3.00;;
18102;SDS011;9178;51.120;6.192;2024-02-26T11:58:31;3.57;;;3.27;;
18102;SDS011;9178;51.120;6.192;2024-02-26T12:00:58;3.67;;;3.13;;
18102;SDS011;9178;51.120;6.192;2024-02-26T12:03:26;3.93;;;3.40;;
18102;SDS011;9178;51.120;6.192;2024-02-26T12:05:59;3.80;;;3.50;;
18102;SDS011;9178;51.120;6.192;2024-02-26T12:08:27;3.50;;;3.20;;
18102;SDS011;9178;51.120;6.192;2024-02-26T12:10:56;3.97;;;3.57;;
18102;SDS011;9178;51.120;6.192;2024-02-26T12:13:31;5.47;;;4.43;;
18102;SDS011;9178;51.120;6.192;2024-02-26T12:16:00;5.00;;;4.50;;
18102;SDS011;9178;51.120;6.192;2024-02-26T12:18:34;6.27;;;5.67;;
18102;SDS011;9178;51.120;6.192;2024-02-26T12:21:06;8.73;;;6.57;;
18102;SDS011;9178;51.120;6.192;2024-02-26T12:23:38;7.60;;;6.90;;
18102;SDS011;9178;51.120;6.192;2024-02-26T12:26:05;7.90;;;6.97;;
18102;SDS011;9178;51.120;6.192;2024-02-26T12:28:37;8.77;;;7.33;;
18102;SDS011;9178;51.120;6.192;2024-02-26T12:31:07;8.40;;;6.63;;
18102;SDS011;9178;51.120;6.192;2024-02-26T12:33:38;7.93;;;6.80;;
18102;SDS011;9178;51.120;6.192;2024-02-26T12:36:07;7.27;;;6.50;;
18102;SDS011;9178;51.120;6.192;2024-02-26T12:38:34;9.83;;;6.07;;
18102;SDS011;9178;51.120;6.192;2024-02-26T12:41:03;6.83;;;6.03;;
18102;SDS011;9178;51.120;6.192;2024-02-26T12:43:32;6.67;;;5.37;;
18102;SDS011;9178;51.120;6.192;2024-02-26T12:46:02;5.93;;;5.10;;
18102;SDS011;9178;51.120;6.192;2024-02-26T12:48:38;6.87;;;5.57;;
18102;SDS011;9178;51.120;6.192;2024-02-26T12:51:07;6.20;;;5.40;;
18102;SDS011;9178;51.120;6.192;2024-02-26T12:53:38;7.00;;;5.97;;
18102;SDS011;9178;51.120;6.192;2024-02-26T12:56:11;7.73;;;6.03;;
18102;SDS011;9178;51.120;6.192;2024-02-26T12:58:41;8.70;;;6.30;;
18102;SDS011;9178;51.120;6.192;2024-02-26T13:01:13;7.63;;;6.43;;
18102;SDS011;9178;51.120;6.192;2024-02-26T13:03:41;9.20;;;7.10;;
18102;SDS011;9178;51.120;6.192;2024-02-26T13:06:10;8.13;;;7.07;;
18102;SDS011;9178;51.120;6.192;2024-02-26T13:08:38;7.90;;;6.87;;
18102;SDS011;9178;51.120;6.192;2024-02-26T13:11:05;8.00;;;7.17;;
18102;SDS011;9178;51.120;6.192;2024-02-26T13:13:36;10.13;;;8.50;;
18102;SDS011;9178;51.120;6.192;2024-02-26T13:16:07;10.67;;;8.03;;
18102;SDS011;9178;51.120;6.192;2024-02-26T13:18:36;10.03;;;8.57;;
18102;SDS011;9178;51.120;6.192;2024-02-26T13:21:12;9.03;;;7.73;;
18102;SDS011;9178;51.120;6.192;2024-02-26T13:23:40;9.97;;;8.13;;
18102;SDS011;9178;51.120;6.192;2024-02-26T13:26:14;11.03;;;7.57;;
18102;SDS011;9178;51.120;6.192;2024-02-26T13:28:45;10.00;;;7.90;;
18102;SDS011;9178;51.120;6.192;2024-02-26T13:31:13;9.40;;;8.00;;
18102;SDS011;9178;51.120;6.192;2024-02-26T13:33:40;10.73;;;8.00;;
18102;SDS011;9178;51.120;6.192;2024-02-26T13:36:07;11.80;;;8.37;;
18102;SDS011;9178;51.120;6.192;2024-02-26T13:38:38;9.97;;;8.10;;
18102;SDS011;9178;51.120;6.192;2024-02-26T13:41:05;9.43;;;7.83;;
18102;SDS011;9178;51.120;6.192;2024-02-26T13:43:33;9.77;;;8.33;;
18102;SDS011;9178;51.120;6.192;2024-02-26T13:46:00;10.27;;;8.67;;
18102;SDS011;9178;51.120;6.192;2024-02-26T13:48:36;9.20;;;8.30;;
18102;SDS011;9178;51.120;6.192;2024-02-26T13:51:04;9.70;;;8.43;;
18102;SDS011;9178;51.120;6.192;2024-02-26T13:53:32;9.80;;;8.50;;
18102;SDS011;9178;51.120;6.192;2024-02-26T13:56:00;10.13;;;9.00;;
18102;SDS011;9178;51.120;6.192;2024-02-26T13:58:31;10.40;;;9.23;;
18102;SDS011;9178;51.120;6.192;2024-02-26T14:00:58;11.37;;;10.13;;
18102;SDS011;9178;51.120;6.192;2024-02-26T14:03:28;11.30;;;9.70;;
18102;SDS011;9178;51.120;6.192;2024-02-26T14:05:58;13.77;;;10.50;;
18102;SDS011;9178;51.120;6.192;2024-02-26T14:08:27;12.13;;;10.33;;
18102;SDS011;9178;51.120;6.192;2024-02-26T14:10:56;12.50;;;10.20;;
18102;SDS011;9178;51.120;6.192;2024-02-26T14:13:26;13.33;;;10.10;;
18102;SDS011;9178;51.120;6.192;2024-02-26T14:15:56;12.50;;;9.53;;
18102;SDS011;9178;51.120;6.192;2024-02-26T14:18:23;10.77;;;9.00;;
18102;SDS011;9178;51.120;6.192;2024-02-26T14:20:52;9.90;;;8.87;;
18102;SDS011;9178;51.120;6.192;2024-02-26T14:23:29;9.57;;;8.37;;
18102;SDS011;9178;51.120;6.192;2024-02-26T14:25:56;10.53;;;8.43;;
18102;SDS011;9178;51.120;6.192;2024-02-26T14:28:23;9.10;;;7.43;;
18102;SDS011;9178;51.120;6.192;2024-02-26T14:31:05;10.43;;;8.10;;
18102;SDS011;9178;51.120;6.192;2024-02-26T14:33:37;10.07;;;7.50;;
18102;SDS011;9178;51.120;6.192;2024-02-26T14:36:06;10.40;;;6.93;;
18102;SDS011;9178;51.120;6.192;2024-02-26T14:38:33;10.00;;;7.37;;
18102;SDS011;9178;51.120;6.192;2024-02-26T14:41:02;9.43;;;7.60;;
18102;SDS011;9178;51.120;6.192;2024-02-26T14:43:38;7.80;;;6.90;;
18102;SDS011;9178;51.120;6.192;2024-02-26T14:46:08;8.63;;;6.70;;
18102;SDS011;9178;51.120;6.192;2024-02-26T14:48:35;8.77;;;6.80;;
18102;SDS011;9178;51.120;6.192;2024-02-26T14:51:14;8.57;;;7.07;;
18102;SDS011;9178;51.120;6.192;2024-02-26T14:53:47;11.90;;;6.80;;
18102;SDS011;9178;51.120;6.192;2024-02-26T14:56:15;8.03;;;7.17;;
18102;SDS011;9178;51.120;6.192;2024-02-26T14:58:45;8.30;;;6.90;;
18102;SDS011;9178;51.120;6.192;2024-02-26T15:01:27;6.40;;;5.80;;
18102;SDS011;9178;51.120;6.192;2024-02-26T15:03:57;7.10;;;6.40;;
18102;SDS011;9178;51.120;6.192;2024-02-26T15:06:25;7.10;;;5.97;;
18102;SDS011;9178;51.120;6.192;2024-02-26T15:08:52;6.30;;;5.70;;
18102;SDS011;9178;51.120;6.192;2024-02-26T15:11:20;7.17;;;6.23;;
18102;SDS011;9178;51.120;6.192;2024-02-26T15:13:56;7.57;;;5.73;;